createdAt,value
2022-09-16T00:02:40.192Z,6.13
2022-09-16T00:05:47.275Z,6.37
2022-09-16T00:08:50.100Z,6.20
2022-09-16T00:11:52.417Z,4.53
2022-09-16T00:14:54.980Z,5.55
2022-09-16T00:17:57.659Z,5.43
2022-09-16T00:21:00.084Z,5.30
2022-09-16T00:24:03.155Z,5.22
2022-09-16T00:27:05.683Z,4.65
2022-09-16T00:30:08.746Z,5.53
2022-09-16T00:33:11.079Z,4.63
2022-09-16T00:36:15.917Z,4.70
2022-09-16T00:39:18.147Z,4.78
2022-09-16T00:42:21.007Z,6.72
2022-09-16T00:45:24.895Z,4.85
2022-09-16T00:48:28.956Z,4.50
2022-09-16T00:51:31.567Z,3.97
2022-09-16T00:54:35.723Z,4.22
2022-09-16T00:57:38.157Z,4.40
2022-09-16T01:00:40.923Z,5.22
2022-09-16T01:03:50.571Z,4.97
2022-09-16T01:06:53.233Z,4.73
2022-09-16T01:09:55.581Z,4.15
2022-09-16T01:13:08.910Z,4.55
2022-09-16T01:16:23.450Z,3.78
2022-09-16T01:20:01.683Z,4.22
2022-09-16T01:23:25.636Z,5.47
2022-09-16T01:26:46.321Z,5.35
2022-09-16T01:30:29.695Z,4.65
2022-09-16T01:33:40.651Z,5.05
2022-09-16T01:36:50.411Z,5.05
2022-09-16T01:40:01.973Z,4.90
2022-09-16T01:43:19.912Z,5.90
2022-09-16T01:46:27.977Z,5.88
2022-09-16T01:49:45.498Z,6.18
2022-09-16T01:53:28.095Z,5.57
2022-09-16T01:56:53.809Z,6.00
2022-09-16T02:00:06.998Z,5.80
2022-09-16T02:03:15.263Z,8.40
2022-09-16T02:06:23.486Z,5.65
2022-09-16T02:09:37.987Z,6.30
2022-09-16T02:12:42.023Z,6.90
2022-09-16T02:15:48.346Z,6.70
2022-09-16T02:18:55.552Z,6.57
2022-09-16T02:21:59.336Z,7.32
2022-09-16T02:25:03.959Z,6.47
2022-09-16T02:28:11.214Z,7.20
2022-09-16T02:31:14.721Z,8.10
2022-09-16T02:34:20.350Z,7.57
2022-09-16T02:37:31.213Z,6.72
2022-09-16T02:40:52.437Z,7.32
2022-09-16T02:43:55.635Z,7.07
2022-09-16T02:47:12.447Z,7.47
2022-09-16T02:50:27.823Z,7.88
2022-09-16T02:53:39.726Z,8.50
2022-09-16T02:56:42.820Z,9.00
2022-09-16T02:59:45.811Z,9.50
2022-09-16T03:02:48.951Z,8.32
2022-09-16T03:06:06.938Z,8.15
2022-09-16T03:09:12.704Z,9.27
2022-09-16T03:12:38.221Z,8.00
2022-09-16T03:16:07.769Z,8.13
2022-09-16T03:19:25.198Z,8.73
2022-09-16T03:22:51.444Z,8.98
2022-09-16T03:26:34.723Z,9.77
2022-09-16T03:29:50.712Z,9.38
2022-09-16T03:32:57.598Z,12.83
2022-09-16T03:36:03.588Z,10.55
2022-09-16T03:39:06.112Z,10.35
2022-09-16T03:42:11.260Z,11.00
2022-09-16T03:45:17.096Z,10.60
2022-09-16T03:48:19.252Z,11.20
2022-09-16T03:51:21.828Z,11.38
2022-09-16T03:54:24.639Z,9.93
2022-09-16T03:57:28.286Z,13.55
2022-09-16T04:00:31.097Z,11.40
2022-09-16T04:03:37.057Z,11.13
2022-09-16T04:06:40.453Z,11.40
2022-09-16T04:09:43.347Z,11.43
2022-09-16T04:12:46.540Z,11.02
2022-09-16T04:15:49.898Z,12.25
2022-09-16T04:18:53.033Z,11.50
2022-09-16T04:21:56.023Z,13.68
2022-09-16T04:24:59.224Z,10.60
2022-09-16T04:28:02.413Z,11.35
2022-09-16T04:31:07.073Z,10.55
2022-09-16T04:34:11.909Z,11.13
2022-09-16T04:37:14.398Z,10.65
2022-09-16T04:40:17.258Z,10.82
2022-09-16T04:43:19.612Z,11.73
2022-09-16T04:46:22.462Z,11.10
2022-09-16T04:49:25.323Z,11.57
2022-09-16T04:52:30.517Z,10.55
2022-09-16T04:55:33.001Z,10.82
2022-09-16T04:58:36.137Z,12.45
2022-09-16T05:01:39.423Z,11.55
2022-09-16T05:04:41.830Z,10.03
2022-09-16T05:07:44.048Z,12.00
2022-09-16T05:10:46.486Z,11.70
2022-09-16T05:13:48.656Z,11.60
2022-09-16T05:16:50.919Z,12.18
2022-09-16T05:19:53.063Z,12.43
2022-09-16T05:22:55.254Z,11.68
2022-09-16T05:26:03.452Z,12.25
2022-09-16T05:29:08.652Z,10.38
2022-09-16T05:32:10.824Z,12.75
2022-09-16T05:35:13.344Z,9.37
2022-09-16T05:38:15.723Z,12.02
2022-09-16T05:41:18.025Z,12.20
2022-09-16T05:44:20.242Z,11.82
2022-09-16T05:47:23.029Z,13.25
2022-09-16T05:50:25.418Z,11.80
2022-09-16T05:53:30.265Z,11.70
2022-09-16T05:56:33.356Z,12.52
2022-09-16T05:59:36.450Z,12.25
2022-09-16T06:02:38.935Z,11.63
2022-09-16T06:05:45.527Z,11.20
2022-09-16T06:08:48.082Z,14.48
2022-09-16T06:11:51.858Z,11.10
2022-09-16T06:14:54.713Z,11.15
2022-09-16T06:18:02.880Z,11.88
2022-09-16T06:21:10.538Z,10.97
2022-09-16T06:24:14.655Z,11.35
2022-09-16T06:27:17.642Z,11.85
2022-09-16T06:30:20.459Z,10.27
2022-09-16T06:33:22.860Z,10.60
2022-09-16T06:36:28.040Z,10.30
2022-09-16T06:39:30.233Z,9.57
2022-09-16T06:42:32.398Z,9.63
2022-09-16T06:45:38.909Z,10.82
2022-09-16T06:48:41.295Z,11.23
2022-09-16T06:51:43.697Z,10.50
2022-09-16T06:54:47.405Z,10.23
2022-09-16T06:57:49.580Z,9.00
2022-09-16T07:00:51.848Z,7.55
2022-09-16T07:03:54.760Z,8.18
2022-09-16T07:07:09.339Z,7.43
2022-09-16T07:10:12.946Z,9.45
2022-09-16T07:13:16.748Z,10.00
2022-09-16T07:16:22.247Z,6.82
2022-09-16T07:19:26.107Z,9.38
2022-09-16T07:22:32.477Z,7.80
2022-09-16T07:25:36.011Z,7.80
2022-09-16T07:28:39.404Z,7.28
2022-09-16T07:31:41.677Z,8.23
2022-09-16T07:34:43.809Z,9.25
2022-09-16T07:37:45.981Z,7.77
2022-09-16T07:40:48.192Z,7.43
2022-09-16T07:43:50.810Z,7.22
2022-09-16T07:46:53.123Z,8.32
2022-09-16T07:49:56.212Z,8.50
2022-09-16T07:52:58.408Z,10.03
2022-09-16T07:56:09.162Z,7.93
2022-09-16T07:59:18.562Z,8.70
2022-09-16T08:02:21.401Z,5.93
2022-09-16T08:05:23.673Z,5.63
2022-09-16T08:08:25.885Z,5.60
2022-09-16T08:11:28.595Z,6.10
2022-09-16T08:14:30.851Z,6.45
2022-09-16T08:17:33.595Z,5.28
2022-09-16T08:20:37.152Z,8.07
2022-09-16T08:23:39.952Z,5.27
2022-09-16T08:26:42.296Z,7.13
2022-09-16T08:29:44.560Z,6.60
2022-09-16T08:32:48.632Z,8.55
2022-09-16T08:36:17.505Z,6.13
2022-09-16T08:39:20.940Z,5.70
2022-09-16T08:42:56.727Z,5.75
2022-09-16T08:46:09.659Z,4.82
2022-09-16T08:49:38.268Z,6.85
2022-09-16T08:52:42.815Z,6.25
2022-09-16T08:55:48.079Z,5.13
2022-09-16T08:58:55.787Z,5.10
2022-09-16T09:02:20.341Z,4.70
2022-09-16T09:05:38.625Z,5.68
2022-09-16T09:08:46.497Z,5.75
2022-09-16T09:12:21.810Z,6.33
2022-09-16T09:15:32.255Z,6.68
2022-09-16T09:18:49.445Z,6.53
2022-09-16T09:22:28.599Z,5.38
2022-09-16T09:25:55.250Z,5.25
2022-09-16T09:29:16.226Z,5.43
2022-09-16T09:32:18.415Z,5.07
2022-09-16T09:35:35.313Z,5.40
2022-09-16T09:38:54.251Z,3.90
2022-09-16T09:42:06.241Z,4.78
2022-09-16T09:45:29.932Z,5.20
2022-09-16T09:48:32.194Z,4.65
2022-09-16T09:51:51.025Z,4.43
2022-09-16T09:54:54.168Z,3.78
2022-09-16T09:58:02.454Z,4.50
2022-09-16T10:01:04.765Z,5.03
2022-09-16T10:04:15.637Z,4.20
2022-09-16T10:07:21.118Z,3.88
2022-09-16T10:10:25.508Z,4.28
2022-09-16T10:13:32.597Z,4.22
2022-09-16T10:16:37.409Z,4.13
2022-09-16T10:19:54.698Z,3.95
2022-09-16T10:23:07.237Z,4.85
2022-09-16T10:26:21.761Z,4.53
2022-09-16T10:29:24.266Z,5.57
2022-09-16T10:32:26.503Z,4.03
2022-09-16T10:35:31.161Z,5.25
2022-09-16T10:38:41.604Z,5.00
2022-09-16T10:41:47.573Z,6.38
2022-09-16T10:44:51.753Z,4.50
2022-09-16T10:48:02.133Z,3.90
2022-09-16T10:51:23.264Z,5.80
2022-09-16T10:54:28.632Z,6.35
2022-09-16T10:57:32.514Z,4.65
2022-09-16T11:00:53.835Z,4.32
2022-09-16T11:04:25.326Z,4.97
2022-09-16T11:07:47.538Z,6.00
2022-09-16T11:10:49.899Z,4.20
2022-09-16T11:13:59.816Z,5.07
2022-09-16T11:17:26.836Z,4.75
2022-09-16T11:20:46.102Z,4.50
2022-09-16T11:24:27.371Z,4.55
2022-09-16T11:28:06.582Z,4.70
2022-09-16T11:31:22.633Z,3.83
2022-09-16T11:34:43.488Z,4.15
2022-09-16T11:38:03.335Z,4.30
2022-09-16T11:41:10.331Z,4.03
2022-09-16T11:44:12.576Z,5.32
2022-09-16T11:47:26.469Z,6.68
2022-09-16T11:51:20.173Z,5.28
2022-09-16T11:54:46.086Z,4.10
2022-09-16T11:58:32.891Z,6.05
2022-09-16T12:01:39.597Z,4.95
2022-09-16T12:04:47.458Z,4.15
2022-09-16T12:08:22.945Z,5.47
2022-09-16T12:11:36.664Z,4.30
2022-09-16T12:14:49.051Z,4.95
2022-09-16T12:17:54.273Z,4.15
2022-09-16T12:21:15.113Z,4.95
2022-09-16T12:24:23.958Z,5.65
2022-09-16T12:27:48.727Z,5.03
2022-09-16T12:31:03.599Z,4.05
2022-09-16T12:34:11.953Z,5.05
2022-09-16T12:37:44.275Z,5.97
2022-09-16T12:41:25.265Z,4.90
2022-09-16T12:45:12.418Z,4.07
2022-09-16T12:49:09.020Z,4.70
2022-09-16T12:52:35.871Z,5.78
2022-09-16T12:55:44.801Z,4.30
2022-09-16T12:58:49.953Z,4.57
2022-09-16T13:02:11.692Z,4.07
2022-09-16T13:05:20.940Z,4.30
2022-09-16T13:08:28.922Z,3.78
2022-09-16T13:15:05.423Z,5.20
2022-09-16T13:18:19.392Z,3.87
2022-09-16T13:21:29.113Z,3.60
2022-09-16T13:24:43.727Z,5.30
2022-09-16T13:28:01.677Z,3.58
2022-09-16T13:31:14.236Z,4.38
2022-09-16T13:34:18.059Z,3.30
2022-09-16T13:37:26.708Z,3.17
2022-09-16T13:40:31.006Z,3.40
2022-09-16T13:43:42.081Z,3.08
2022-09-16T13:46:44.292Z,3.13
2022-09-16T13:49:53.386Z,4.07
2022-09-16T13:52:55.606Z,4.47
2022-09-16T13:56:25.686Z,4.25
2022-09-16T14:00:08.787Z,3.15
2022-09-16T14:03:30.014Z,3.08
2022-09-16T14:06:38.024Z,3.53
2022-09-16T14:09:54.963Z,3.55
2022-09-16T14:13:11.889Z,3.58
2022-09-16T14:16:25.571Z,3.22
2022-09-16T14:19:31.651Z,3.72
2022-09-16T14:22:33.867Z,4.10
2022-09-16T14:25:36.981Z,3.47
2022-09-16T14:28:39.655Z,4.03
2022-09-16T14:31:45.336Z,3.30
2022-09-16T14:34:50.443Z,3.13
2022-09-16T14:37:59.093Z,3.50
2022-09-16T14:41:01.491Z,3.20
2022-09-16T14:44:28.712Z,3.60
2022-09-16T14:47:50.493Z,3.47
2022-09-16T14:50:56.457Z,2.92
2022-09-16T14:54:15.499Z,4.93
2022-09-16T14:57:25.574Z,3.65
2022-09-16T15:00:39.716Z,3.85
2022-09-16T15:03:49.077Z,3.15
2022-09-16T15:06:53.696Z,4.25
2022-09-16T15:10:14.389Z,4.00
2022-09-16T15:13:18.708Z,5.50
2022-09-16T15:16:22.465Z,3.67
2022-09-16T15:19:35.221Z,4.97
2022-09-16T15:22:39.879Z,3.08
2022-09-16T15:25:51.971Z,3.80
2022-09-16T15:29:06.116Z,4.97
2022-09-16T15:32:20.995Z,3.25
2022-09-16T15:35:27.674Z,5.00
2022-09-16T15:38:31.393Z,4.75
2022-09-16T15:41:33.634Z,4.27
2022-09-16T15:44:37.524Z,3.75
2022-09-16T15:47:51.762Z,3.90
2022-09-16T15:51:01.051Z,4.85
2022-09-16T15:54:25.139Z,3.63
2022-09-16T15:57:40.660Z,5.27
2022-09-16T16:01:06.720Z,4.78
2022-09-16T16:04:11.918Z,3.50
2022-09-16T16:07:41.260Z,3.80
2022-09-16T16:10:44.768Z,4.45
2022-09-16T16:13:47.845Z,4.17
2022-09-16T16:17:11.672Z,3.92
2022-09-16T16:20:14.858Z,3.80
2022-09-16T16:23:17.016Z,3.63
2022-09-16T16:26:20.436Z,5.47
2022-09-16T16:29:22.586Z,4.17
2022-09-16T16:32:24.747Z,5.32
2022-09-16T16:35:26.924Z,4.00
2022-09-16T16:38:29.095Z,4.60
2022-09-16T16:41:31.521Z,3.95
2022-09-16T16:44:34.101Z,4.87
2022-09-16T16:47:36.260Z,5.75
2022-09-16T16:50:38.770Z,4.85
2022-09-16T16:53:40.959Z,4.72
2022-09-16T16:56:43.102Z,5.20
2022-09-16T16:59:45.376Z,5.47
2022-09-16T17:02:47.577Z,4.93
2022-09-16T17:05:51.052Z,4.97
2022-09-16T17:08:57.804Z,6.38
2022-09-16T17:12:01.002Z,6.03
2022-09-16T17:15:03.465Z,7.20
2022-09-16T17:18:05.660Z,6.47
2022-09-16T17:21:11.912Z,5.18
2022-09-16T17:24:14.221Z,4.97
2022-09-16T17:27:19.794Z,3.83
2022-09-16T17:30:22.591Z,4.70
2022-09-16T17:33:24.737Z,5.47
2022-09-16T17:36:28.930Z,6.40
2022-09-16T17:39:32.849Z,4.82
2022-09-16T17:42:36.561Z,5.07
2022-09-16T17:45:39.364Z,6.13
2022-09-16T17:48:42.659Z,4.55
2022-09-16T17:51:45.581Z,6.03
2022-09-16T17:54:47.935Z,5.22
2022-09-16T17:57:50.081Z,6.65
2022-09-16T18:00:52.208Z,5.83
2022-09-16T18:03:55.725Z,6.03
2022-09-16T18:06:58.089Z,5.32
2022-09-16T18:10:00.246Z,7.05
2022-09-16T18:13:03.404Z,7.30
2022-09-16T18:16:14.253Z,5.97
2022-09-16T18:19:16.498Z,8.10
2022-09-16T18:22:18.841Z,6.75
2022-09-16T18:25:21.015Z,5.68
2022-09-16T18:28:24.325Z,6.55
2022-09-16T18:31:26.819Z,5.63
2022-09-16T18:34:33.394Z,5.43
2022-09-16T18:37:36.026Z,6.40
2022-09-16T18:40:39.619Z,7.38
2022-09-16T18:43:45.902Z,6.63
2022-09-16T18:46:48.299Z,5.87
2022-09-16T18:49:50.473Z,5.88
2022-09-16T18:52:52.620Z,7.40
2022-09-16T18:55:56.428Z,6.45
2022-09-16T18:59:24.008Z,5.43
2022-09-16T19:02:26.641Z,12.00
2022-09-16T19:05:29.131Z,6.22
2022-09-16T19:08:32.759Z,6.47
2022-09-16T19:11:35.829Z,6.30
2022-09-16T19:14:38.640Z,6.57
2022-09-16T19:17:40.863Z,10.00
2022-09-16T19:20:44.392Z,7.20
2022-09-16T19:23:48.812Z,6.68
2022-09-16T19:26:54.214Z,8.02
2022-09-16T19:29:56.398Z,6.35
2022-09-16T19:32:58.631Z,5.83
2022-09-16T19:36:01.006Z,5.50
2022-09-16T19:39:04.368Z,6.43
2022-09-16T19:42:07.789Z,6.47
2022-09-16T19:45:10.417Z,5.75
2022-09-16T19:48:12.671Z,5.63
2022-09-16T19:51:16.964Z,6.07
2022-09-16T19:54:19.534Z,5.55
2022-09-16T19:57:22.192Z,6.43
2022-09-16T20:00:32.782Z,7.70
2022-09-16T20:03:49.292Z,7.03
2022-09-16T20:06:51.577Z,7.68
2022-09-16T20:09:53.714Z,8.15
2022-09-16T20:12:59.390Z,6.40
2022-09-16T20:16:04.098Z,7.22
2022-09-16T20:19:13.035Z,5.90
2022-09-16T20:22:15.201Z,7.10
2022-09-16T20:25:23.331Z,7.35
2022-09-16T20:28:30.987Z,5.47
2022-09-16T20:31:35.136Z,5.55
2022-09-16T20:34:38.722Z,8.07
2022-09-16T20:37:43.593Z,6.25
2022-09-16T20:40:46.092Z,6.65
2022-09-16T20:43:50.544Z,5.53
2022-09-16T20:46:55.872Z,6.38
2022-09-16T20:49:58.007Z,6.87
2022-09-16T20:53:00.301Z,6.20
2022-09-16T20:56:04.734Z,9.70
2022-09-16T20:59:09.009Z,5.65
2022-09-16T21:02:11.366Z,5.38
2022-09-16T21:05:13.652Z,5.57
2022-09-16T21:08:15.817Z,6.40
2022-09-16T21:11:19.574Z,6.00
2022-09-16T21:14:22.670Z,7.55
2022-09-16T21:17:24.820Z,5.45
2022-09-16T21:20:26.972Z,6.43
2022-09-16T21:23:30.268Z,7.53
2022-09-16T21:26:33.800Z,8.00
2022-09-16T21:29:36.641Z,10.60
2022-09-16T21:32:39.068Z,8.27
2022-09-16T21:35:50.578Z,9.23
2022-09-16T21:38:52.831Z,8.68
2022-09-16T21:41:55.162Z,7.68
2022-09-16T21:44:58.206Z,7.82
2022-09-16T21:48:00.661Z,8.85
2022-09-16T21:51:05.627Z,9.77
2022-09-16T21:54:09.666Z,9.60
2022-09-16T21:57:13.584Z,9.80
2022-09-16T22:00:16.015Z,8.35
2022-09-16T22:03:18.589Z,10.25
2022-09-16T22:06:22.397Z,10.07
2022-09-16T22:09:24.659Z,10.82
2022-09-16T22:12:26.831Z,8.93
2022-09-16T22:15:29.003Z,9.00
2022-09-16T22:18:31.508Z,11.23
2022-09-16T22:21:36.198Z,11.00
2022-09-16T22:24:38.363Z,10.40
2022-09-16T22:27:40.506Z,10.35
2022-09-16T22:30:42.695Z,10.77
2022-09-16T22:33:46.716Z,10.25
2022-09-16T22:36:48.871Z,11.03
2022-09-16T22:39:51.423Z,9.73
2022-09-16T22:42:53.704Z,11.80
2022-09-16T22:46:05.831Z,9.15
2022-09-16T22:49:08.439Z,9.07
2022-09-16T22:52:10.652Z,11.03
2022-09-16T22:55:12.893Z,8.20
2022-09-16T22:58:15.131Z,7.47
2022-09-16T23:01:19.947Z,8.77
2022-09-16T23:04:22.470Z,8.13
2022-09-16T23:07:24.717Z,8.80
2022-09-16T23:10:26.943Z,8.32
2022-09-16T23:13:29.704Z,9.30
2022-09-16T23:16:34.496Z,8.45
2022-09-16T23:19:36.670Z,8.23
2022-09-16T23:22:39.573Z,10.43
2022-09-16T23:25:41.868Z,9.30
2022-09-16T23:28:44.585Z,9.25
2022-09-16T23:31:47.116Z,10.63
2022-09-16T23:34:50.248Z,8.77
2022-09-16T23:37:52.934Z,8.63
2022-09-16T23:40:55.423Z,8.02
2022-09-16T23:43:57.919Z,9.85
2022-09-16T23:47:00.255Z,8.40
2022-09-16T23:50:02.543Z,8.20
2022-09-16T23:53:05.143Z,7.90
2022-09-16T23:56:11.314Z,7.85
2022-09-16T23:59:13.518Z,7.65
